createdAt,value
2024-01-11T00:00:37.992Z,100.00
2024-01-11T00:03:04.884Z,100.00
2024-01-11T00:05:31.436Z,100.00
2024-01-11T00:07:59.356Z,100.00
2024-01-11T00:10:25.863Z,100.00
2024-01-11T00:12:52.331Z,100.00
2024-01-11T00:15:18.947Z,100.00
2024-01-11T00:17:45.639Z,100.00
2024-01-11T00:20:12.425Z,100.00
2024-01-11T00:22:38.896Z,100.00
2024-01-11T00:25:07.707Z,100.00
2024-01-11T00:27:34.193Z,100.00
2024-01-11T00:30:00.931Z,100.00
2024-01-11T00:32:27.493Z,100.00
2024-01-11T00:34:54.066Z,100.00
2024-01-11T00:37:20.688Z,100.00
2024-01-11T00:39:47.150Z,100.00
2024-01-11T00:42:14.982Z,100.00
2024-01-11T00:44:43.940Z,100.00
2024-01-11T00:47:10.490Z,100.00
2024-01-11T00:49:37.085Z,100.00
2024-01-11T00:52:04.048Z,100.00
2024-01-11T00:54:30.600Z,100.00
2024-01-11T00:56:57.092Z,100.00
2024-01-11T00:59:24.996Z,100.00
2024-01-11T01:01:51.945Z,100.00
2024-01-11T01:04:18.629Z,100.00
2024-01-11T01:06:45.222Z,100.00
2024-01-11T01:09:11.726Z,100.00
2024-01-11T01:11:38.253Z,100.00
2024-01-11T01:14:05.877Z,100.00
2024-01-11T01:16:33.752Z,100.00
2024-01-11T01:19:03.474Z,100.00
2024-01-11T01:21:31.071Z,100.00
2024-01-11T01:23:57.634Z,100.00
2024-01-11T01:26:24.142Z,100.00
2024-01-11T01:28:50.743Z,100.00
2024-01-11T01:31:17.194Z,100.00
2024-01-11T01:33:45.080Z,100.00
2024-01-11T01:36:12.182Z,100.00
2024-01-11T01:38:38.824Z,100.00
2024-01-11T01:41:05.623Z,100.00
2024-01-11T01:43:32.170Z,100.00
2024-01-11T01:45:59.451Z,100.00
2024-01-11T01:48:26.638Z,100.00
2024-01-11T01:50:55.326Z,100.00
2024-01-11T01:53:24.006Z,100.00
2024-01-11T01:56:02.476Z,100.00
2024-01-11T01:58:29.785Z,100.00
2024-01-11T02:00:56.538Z,100.00
2024-01-11T02:03:25.159Z,100.00
2024-01-11T02:05:51.862Z,100.00
2024-01-11T02:08:22.641Z,100.00
2024-01-11T02:10:49.487Z,100.00
2024-01-11T02:13:16.369Z,100.00
2024-01-11T02:15:42.849Z,100.00
2024-01-11T02:18:09.429Z,100.00
2024-01-11T02:20:36.032Z,100.00
2024-01-11T02:23:06.734Z,100.00
2024-01-11T02:25:34.607Z,100.00
2024-01-11T02:28:01.150Z,100.00
2024-01-11T02:30:27.721Z,100.00
2024-01-11T02:32:54.792Z,100.00
2024-01-11T02:35:22.506Z,100.00
2024-01-11T02:37:49.501Z,100.00
2024-01-11T02:40:16.020Z,100.00
2024-01-11T02:42:43.843Z,100.00
2024-01-11T02:45:11.570Z,100.00
2024-01-11T02:47:38.219Z,100.00
2024-01-11T02:50:05.476Z,100.00
2024-01-11T02:52:32.017Z,100.00
2024-01-11T02:54:58.561Z,100.00
2024-01-11T02:57:25.141Z,100.00
2024-01-11T02:59:53.148Z,100.00
2024-01-11T03:02:19.656Z,100.00
2024-01-11T03:04:46.155Z,100.00
2024-01-11T03:07:12.751Z,100.00
2024-01-11T03:09:39.165Z,100.00
2024-01-11T03:12:05.972Z,100.00
2024-01-11T03:14:32.538Z,100.00
2024-01-11T03:17:00.423Z,100.00
2024-01-11T03:19:26.976Z,100.00
2024-01-11T03:21:53.481Z,100.00
2024-01-11T03:24:19.982Z,100.00
2024-01-11T03:26:46.496Z,100.00
2024-01-11T03:29:12.976Z,100.00
2024-01-11T03:31:39.433Z,100.00
2024-01-11T03:34:07.412Z,100.00
2024-01-11T03:36:33.947Z,100.00
2024-01-11T03:39:00.637Z,100.00
2024-01-11T03:41:27.132Z,100.00
2024-01-11T03:43:53.623Z,100.00
2024-01-11T03:46:21.138Z,100.00
2024-01-11T03:48:47.674Z,100.00
2024-01-11T03:51:15.500Z,100.00
2024-01-11T03:53:42.152Z,100.00
2024-01-11T03:56:08.847Z,100.00
2024-01-11T03:58:36.849Z,100.00
2024-01-11T04:01:03.582Z,100.00
2024-01-11T04:03:30.222Z,100.00
2024-01-11T04:05:56.957Z,100.00
2024-01-11T04:08:24.825Z,100.00
2024-01-11T04:10:51.363Z,100.00
2024-01-11T04:13:17.777Z,100.00
2024-01-11T04:15:44.315Z,100.00
2024-01-11T04:18:10.875Z,100.00
2024-01-11T04:20:37.560Z,100.00
2024-01-11T04:23:04.464Z,100.00
2024-01-11T04:25:32.223Z,100.00
2024-01-11T04:27:58.729Z,100.00
2024-01-11T04:30:25.233Z,100.00
2024-01-11T04:32:51.789Z,100.00
2024-01-11T04:35:18.445Z,100.00
2024-01-11T04:37:44.967Z,100.00
2024-01-11T04:40:11.919Z,100.00
2024-01-11T04:42:39.685Z,100.00
2024-01-11T04:45:06.569Z,100.00
2024-01-11T04:47:33.142Z,100.00
2024-01-11T04:49:59.752Z,100.00
2024-01-11T04:52:26.219Z,100.00
2024-01-11T04:54:55.681Z,100.00
2024-01-11T04:57:22.120Z,100.00
2024-01-11T04:59:49.911Z,100.00
2024-01-11T05:02:16.394Z,100.00
2024-01-11T05:04:42.883Z,100.00
2024-01-11T05:07:09.340Z,100.00
2024-01-11T05:09:35.789Z,100.00
2024-01-11T05:12:02.245Z,100.00
2024-01-11T05:14:28.809Z,100.00
2024-01-11T05:16:56.958Z,100.00
2024-01-11T05:19:23.596Z,100.00
2024-01-11T05:21:50.176Z,100.00
2024-01-11T05:24:16.690Z,100.00
2024-01-11T05:26:43.518Z,100.00
2024-01-11T05:29:10.087Z,100.00
2024-01-11T05:31:36.760Z,100.00
2024-01-11T05:34:04.906Z,100.00
2024-01-11T05:36:32.570Z,100.00
2024-01-11T05:38:59.068Z,100.00
2024-01-11T05:41:25.572Z,100.00
2024-01-11T05:43:52.132Z,100.00
2024-01-11T05:46:18.766Z,100.00
2024-01-11T05:48:54.533Z,100.00
2024-01-11T05:51:22.638Z,100.00
2024-01-11T05:53:49.265Z,100.00
2024-01-11T05:56:15.860Z,100.00
2024-01-11T05:58:42.553Z,100.00
2024-01-11T06:01:09.290Z,100.00
2024-01-11T06:03:36.366Z,100.00
2024-01-11T06:06:04.107Z,100.00
2024-01-11T06:08:32.654Z,100.00
2024-01-11T06:10:59.738Z,100.00
2024-01-11T06:13:26.414Z,100.00
2024-01-11T06:15:52.921Z,100.00
2024-01-11T06:18:19.712Z,100.00
2024-01-11T06:20:46.411Z,100.00
2024-01-11T06:23:13.053Z,100.00
2024-01-11T06:25:40.897Z,100.00
2024-01-11T06:28:07.564Z,100.00
2024-01-11T06:30:34.124Z,100.00
2024-01-11T06:33:00.819Z,100.00
2024-01-11T06:35:27.460Z,100.00
2024-01-11T06:37:54.058Z,100.00
2024-01-11T06:40:20.560Z,100.00
2024-01-11T06:42:48.426Z,100.00
2024-01-11T06:45:15.577Z,100.00
2024-01-11T06:47:42.373Z,100.00
2024-01-11T06:50:13.136Z,100.00
2024-01-11T06:52:39.786Z,100.00
2024-01-11T06:55:07.419Z,100.00
2024-01-11T06:57:34.066Z,100.00
2024-01-11T07:00:02.241Z,100.00
2024-01-11T07:02:32.255Z,100.00
2024-01-11T07:04:58.857Z,100.00
2024-01-11T07:07:39.924Z,100.00
2024-01-11T07:10:09.843Z,100.00
2024-01-11T07:12:45.191Z,100.00
2024-01-11T07:15:13.833Z,100.00
2024-01-11T07:17:40.563Z,100.00
2024-01-11T07:20:08.787Z,100.00
2024-01-11T07:22:35.871Z,100.00
2024-01-11T07:25:04.132Z,100.00
2024-01-11T07:27:32.789Z,100.00
2024-01-11T07:29:59.349Z,100.00
2024-01-11T07:32:33.770Z,100.00
2024-01-11T07:35:12.208Z,100.00
2024-01-11T07:37:50.390Z,100.00
2024-01-11T07:40:19.977Z,100.00
2024-01-11T07:42:47.995Z,100.00
2024-01-11T07:45:14.795Z,100.00
2024-01-11T07:47:43.499Z,100.00
2024-01-11T07:50:29.330Z,100.00
2024-01-11T07:52:59.102Z,100.00
2024-01-11T07:55:26.109Z,100.00
2024-01-11T07:58:21.044Z,100.00
2024-01-11T08:00:53.962Z,100.00
2024-01-11T08:03:22.193Z,100.00
2024-01-11T08:05:48.999Z,100.00
2024-01-11T08:08:16.018Z,100.00
2024-01-11T08:10:42.727Z,100.00
2024-01-11T08:13:09.535Z,100.00
2024-01-11T08:15:36.082Z,100.00
2024-01-11T08:18:02.798Z,100.00
2024-01-11T08:20:30.884Z,100.00
2024-01-11T08:22:57.774Z,100.00
2024-01-11T08:25:24.381Z,100.00
2024-01-11T08:27:50.950Z,100.00
2024-01-11T08:30:17.846Z,100.00
2024-01-11T08:32:44.466Z,100.00
2024-01-11T08:35:12.373Z,100.00
2024-01-11T08:37:40.644Z,100.00
2024-01-11T08:40:08.229Z,100.00
2024-01-11T08:42:34.794Z,100.00
2024-01-11T08:45:01.949Z,100.00
2024-01-11T08:47:28.693Z,100.00
2024-01-11T08:49:55.429Z,100.00
2024-01-11T08:52:24.204Z,100.00
2024-01-11T08:54:54.575Z,100.00
2024-01-11T08:57:21.629Z,100.00
2024-01-11T08:59:48.474Z,100.00
2024-01-11T09:02:19.041Z,100.00
2024-01-11T09:04:47.564Z,100.00
2024-01-11T09:07:14.404Z,100.00
2024-01-11T09:09:44.488Z,100.00
2024-01-11T09:12:19.234Z,100.00
2024-01-11T09:14:45.900Z,100.00
2024-01-11T09:17:12.589Z,100.00
2024-01-11T09:19:39.560Z,100.00
2024-01-11T09:22:09.141Z,100.00
2024-01-11T09:24:39.532Z,100.00
2024-01-11T09:27:07.437Z,99.72
2024-01-11T09:29:35.410Z,99.39
2024-01-11T09:32:02.089Z,97.60
2024-01-11T09:34:28.887Z,97.51
2024-01-11T09:36:55.474Z,96.08
2024-01-11T09:39:21.955Z,95.45
2024-01-11T09:41:58.769Z,96.60
2024-01-11T09:44:25.662Z,96.85
2024-01-11T09:46:54.266Z,96.62
2024-01-11T09:49:23.591Z,95.90
2024-01-11T09:51:51.723Z,95.91
2024-01-11T09:54:20.393Z,96.16
2024-01-11T09:56:47.660Z,95.77
2024-01-11T09:59:15.484Z,96.32
2024-01-11T10:01:42.117Z,94.64
2024-01-11T10:04:10.267Z,95.61
2024-01-11T10:06:39.497Z,95.59
2024-01-11T10:09:06.085Z,95.28
2024-01-11T10:11:33.202Z,95.39
2024-01-11T10:13:59.893Z,95.67
2024-01-11T10:16:26.515Z,93.87
2024-01-11T10:18:55.558Z,92.26
2024-01-11T10:21:24.845Z,92.24
2024-01-11T10:23:51.941Z,92.49
2024-01-11T10:26:20.417Z,92.63
2024-01-11T10:28:47.561Z,93.09
2024-01-11T10:31:14.142Z,93.13
2024-01-11T10:33:41.213Z,90.00
2024-01-11T10:36:08.586Z,88.25
2024-01-11T10:38:37.697Z,89.92
2024-01-11T10:41:07.089Z,88.09
2024-01-11T10:43:37.585Z,89.57
2024-01-11T10:46:06.033Z,86.23
2024-01-11T10:48:32.673Z,86.36
2024-01-11T10:51:01.825Z,84.93
2024-01-11T10:53:37.385Z,84.66
2024-01-11T10:56:06.830Z,84.64
2024-01-11T10:58:35.837Z,83.50
2024-01-11T11:01:03.405Z,82.86
2024-01-11T11:03:31.474Z,82.75
2024-01-11T11:05:59.748Z,83.19
2024-01-11T11:08:26.351Z,83.48
2024-01-11T11:10:56.759Z,82.56
2024-01-11T11:13:25.547Z,82.78
2024-01-11T11:15:52.831Z,79.75
2024-01-11T11:18:20.468Z,82.80
2024-01-11T11:20:48.159Z,81.41
2024-01-11T11:23:16.907Z,79.12
2024-01-11T11:25:46.119Z,76.98
2024-01-11T11:28:13.617Z,75.76
2024-01-11T11:30:44.640Z,75.40
2024-01-11T11:33:12.918Z,76.26
2024-01-11T11:35:39.908Z,76.05
2024-01-11T11:38:06.885Z,77.22
2024-01-11T11:40:34.384Z,78.03
2024-01-11T11:43:02.673Z,79.85
2024-01-11T11:45:29.738Z,80.05
2024-01-11T11:47:57.665Z,81.18
2024-01-11T11:50:24.284Z,82.06
2024-01-11T11:52:55.524Z,83.62
2024-01-11T11:55:23.553Z,81.32
2024-01-11T11:57:50.685Z,80.24
2024-01-11T12:00:17.871Z,79.15
2024-01-11T12:02:44.524Z,77.75
2024-01-11T12:05:12.519Z,78.64
2024-01-11T12:07:39.716Z,78.49
2024-01-11T12:10:07.387Z,78.73
2024-01-11T12:12:35.747Z,78.43
2024-01-11T12:15:03.878Z,78.67
2024-01-11T12:17:30.739Z,79.48
2024-01-11T12:19:57.530Z,80.36
2024-01-11T12:22:26.072Z,80.39
2024-01-11T12:24:53.204Z,79.74
2024-01-11T12:27:19.776Z,80.66
2024-01-11T12:29:53.109Z,79.26
2024-01-11T12:32:26.426Z,80.86
2024-01-11T12:34:53.191Z,81.05
2024-01-11T12:37:20.688Z,80.07
2024-01-11T12:39:48.710Z,81.48
2024-01-11T12:42:15.567Z,80.68
2024-01-11T12:44:42.157Z,80.58
2024-01-11T12:47:08.884Z,81.67
2024-01-11T12:49:35.793Z,81.72
2024-01-11T12:52:02.402Z,82.49
2024-01-11T12:54:33.060Z,83.13
2024-01-11T12:57:01.852Z,83.02
2024-01-11T12:59:29.250Z,83.76
2024-01-11T13:01:55.969Z,83.23
2024-01-11T13:04:25.241Z,83.90
2024-01-11T13:06:54.804Z,82.17
2024-01-11T13:09:21.721Z,82.11
2024-01-11T13:11:48.347Z,83.04
2024-01-11T13:14:17.194Z,83.22
2024-01-11T13:16:43.799Z,82.70
2024-01-11T13:19:19.757Z,83.12
2024-01-11T13:21:53.266Z,82.98
2024-01-11T13:24:23.285Z,83.61
2024-01-11T13:26:49.902Z,82.76
2024-01-11T13:29:17.826Z,83.24
2024-01-11T13:31:44.365Z,83.88
2024-01-11T13:34:10.993Z,84.74
2024-01-11T13:36:37.639Z,84.57
2024-01-11T13:39:04.336Z,83.73
2024-01-11T13:41:31.020Z,84.40
2024-01-11T13:43:57.585Z,84.27
2024-01-11T13:46:25.812Z,83.70
2024-01-11T13:48:52.428Z,83.70
2024-01-11T13:51:19.143Z,84.07
2024-01-11T13:53:48.985Z,83.52
2024-01-11T13:56:15.817Z,82.74
2024-01-11T13:58:42.496Z,82.69
2024-01-11T14:01:09.271Z,80.98
2024-01-11T14:03:37.185Z,81.66
2024-01-11T14:06:04.488Z,78.04
2024-01-11T14:08:31.497Z,79.78
2024-01-11T14:10:58.088Z,79.30
2024-01-11T14:13:24.724Z,77.54
2024-01-11T14:15:51.265Z,78.15
2024-01-11T14:18:18.695Z,75.13
2024-01-11T14:20:46.773Z,77.13
2024-01-11T14:23:13.336Z,77.43
2024-01-11T14:25:39.856Z,76.25
2024-01-11T14:28:06.780Z,76.34
2024-01-11T14:30:33.296Z,74.76
2024-01-11T14:33:00.083Z,77.46
2024-01-11T14:35:28.261Z,76.72
2024-01-11T14:37:56.416Z,77.57
2024-01-11T14:40:24.903Z,78.38
2024-01-11T14:42:51.831Z,78.95
2024-01-11T14:45:18.494Z,78.78
2024-01-11T14:47:45.685Z,79.14
2024-01-11T14:50:14.694Z,79.53
2024-01-11T14:52:41.246Z,80.72
2024-01-11T14:55:11.105Z,81.51
2024-01-11T14:57:38.092Z,81.69
2024-01-11T15:00:05.413Z,82.00
2024-01-11T15:02:35.363Z,83.18
2024-01-11T15:05:02.560Z,83.55
2024-01-11T15:07:29.026Z,85.16
2024-01-11T15:09:55.481Z,84.52
2024-01-11T15:12:23.707Z,85.05
2024-01-11T15:14:53.019Z,86.43
2024-01-11T15:17:19.973Z,89.05
2024-01-11T15:19:46.629Z,90.88
2024-01-11T15:22:13.156Z,92.13
2024-01-11T15:24:41.715Z,92.58
2024-01-11T15:27:08.388Z,94.11
2024-01-11T15:29:38.585Z,95.10
2024-01-11T15:32:06.581Z,97.98
2024-01-11T15:34:34.965Z,98.21
2024-01-11T15:37:01.662Z,98.25
2024-01-11T15:39:29.583Z,98.56
2024-01-11T15:41:58.953Z,99.52
2024-01-11T15:44:26.268Z,99.64
2024-01-11T15:46:56.736Z,99.72
2024-01-11T15:49:23.869Z,100.00
2024-01-11T15:51:50.552Z,100.00
2024-01-11T15:54:17.312Z,100.00
2024-01-11T15:56:43.989Z,100.00
2024-01-11T15:59:10.682Z,100.00
2024-01-11T16:01:47.016Z,100.00
2024-01-11T16:04:24.368Z,100.00
2024-01-11T16:06:51.193Z,100.00
2024-01-11T16:09:17.840Z,100.00
2024-01-11T16:11:47.620Z,100.00
2024-01-11T16:14:14.420Z,100.00
2024-01-11T16:16:40.884Z,100.00
2024-01-11T16:19:11.329Z,100.00
2024-01-11T16:21:39.359Z,100.00
2024-01-11T16:24:07.481Z,100.00
2024-01-11T16:26:34.022Z,100.00
2024-01-11T16:29:01.033Z,100.00
2024-01-11T16:31:27.531Z,100.00
2024-01-11T16:33:54.485Z,100.00
2024-01-11T16:36:31.935Z,100.00
2024-01-11T16:39:02.236Z,100.00
2024-01-11T16:41:29.174Z,100.00
2024-01-11T16:43:56.027Z,100.00
2024-01-11T16:46:30.612Z,100.00
2024-01-11T16:49:03.081Z,100.00
2024-01-11T16:51:51.099Z,100.00
2024-01-11T16:54:19.825Z,100.00
2024-01-11T16:56:49.965Z,100.00
2024-01-11T16:59:16.982Z,100.00
2024-01-11T17:01:43.676Z,100.00
2024-01-11T17:04:11.747Z,100.00
2024-01-11T17:06:38.913Z,100.00
2024-01-11T17:09:16.325Z,100.00
2024-01-11T17:12:01.591Z,100.00
2024-01-11T17:14:37.073Z,100.00
2024-01-11T17:17:05.742Z,100.00
2024-01-11T17:19:33.192Z,100.00
2024-01-11T17:22:00.220Z,100.00
2024-01-11T17:24:26.721Z,100.00
2024-01-11T17:26:54.793Z,100.00
2024-01-11T17:29:21.540Z,100.00
2024-01-11T17:31:48.117Z,100.00
2024-01-11T17:34:14.891Z,100.00
2024-01-11T17:36:41.594Z,100.00
2024-01-11T17:39:11.027Z,100.00
2024-01-11T17:41:39.234Z,100.00
2024-01-11T17:44:23.779Z,100.00
2024-01-11T17:46:50.418Z,100.00
2024-01-11T17:49:17.123Z,100.00
2024-01-11T17:51:43.822Z,100.00
2024-01-11T17:54:10.468Z,100.00
2024-01-11T17:56:42.864Z,100.00
2024-01-11T17:59:10.179Z,100.00
2024-01-11T18:01:38.332Z,100.00
2024-01-11T18:04:09.411Z,100.00
2024-01-11T18:06:45.481Z,100.00
2024-01-11T18:12:06.602Z,100.00
2024-01-11T18:14:36.968Z,100.00
2024-01-11T18:20:15.820Z,100.00
2024-01-11T18:22:42.539Z,100.00
2024-01-11T18:25:09.955Z,100.00
2024-01-11T18:27:39.549Z,100.00
2024-01-11T18:30:09.462Z,100.00
2024-01-11T18:32:38.835Z,100.00
2024-01-11T18:35:11.275Z,100.00
2024-01-11T18:37:45.335Z,100.00
2024-01-11T18:40:12.394Z,100.00
2024-01-11T18:42:39.060Z,100.00
2024-01-11T18:45:06.971Z,100.00
2024-01-11T18:47:36.987Z,100.00
2024-01-11T18:50:06.783Z,100.00
2024-01-11T18:52:33.651Z,100.00
2024-01-11T18:55:08.325Z,100.00
2024-01-11T18:57:47.038Z,100.00
2024-01-11T19:00:14.426Z,100.00
2024-01-11T19:02:50.681Z,100.00
2024-01-11T19:05:19.539Z,100.00
2024-01-11T19:07:46.686Z,100.00
2024-01-11T19:10:13.683Z,100.00
2024-01-11T19:12:40.933Z,100.00
2024-01-11T19:15:08.759Z,100.00
2024-01-11T19:17:35.781Z,100.00
2024-01-11T19:20:02.659Z,100.00
2024-01-11T19:22:30.650Z,100.00
2024-01-11T19:25:20.351Z,100.00
2024-01-11T19:27:46.960Z,100.00
2024-01-11T19:30:14.367Z,100.00
2024-01-11T19:32:41.150Z,100.00
2024-01-11T19:35:35.793Z,100.00
2024-01-11T19:38:04.019Z,100.00
2024-01-11T19:40:30.823Z,100.00
2024-01-11T19:42:57.870Z,100.00
2024-01-11T19:45:24.455Z,100.00
2024-01-11T19:47:51.319Z,100.00
2024-01-11T19:50:18.349Z,100.00
2024-01-11T19:52:45.404Z,100.00
2024-01-11T19:55:13.423Z,100.00
2024-01-11T19:57:40.193Z,100.00
2024-01-11T20:00:09.816Z,100.00
2024-01-11T20:02:39.318Z,100.00
2024-01-11T20:05:07.092Z,100.00
2024-01-11T20:07:40.257Z,100.00
2024-01-11T20:10:07.579Z,100.00
2024-01-11T20:12:37.702Z,100.00
2024-01-11T20:15:05.109Z,100.00
2024-01-11T20:17:32.673Z,100.00
2024-01-11T20:19:59.437Z,100.00
2024-01-11T20:22:28.645Z,100.00
2024-01-11T20:24:58.483Z,100.00
2024-01-11T20:27:26.049Z,100.00
2024-01-11T20:29:54.100Z,100.00
2024-01-11T20:32:30.158Z,100.00
2024-01-11T20:34:57.141Z,100.00
2024-01-11T20:37:23.829Z,100.00
2024-01-11T20:39:50.544Z,100.00
2024-01-11T20:42:17.641Z,100.00
2024-01-11T20:44:44.339Z,100.00
2024-01-11T20:47:14.836Z,100.00
2024-01-11T20:49:41.888Z,100.00
2024-01-11T20:52:17.646Z,100.00
2024-01-11T20:54:45.590Z,100.00
2024-01-11T20:57:12.295Z,100.00
2024-01-11T20:59:38.978Z,100.00
2024-01-11T21:02:06.117Z,100.00
2024-01-11T21:04:34.695Z,100.00
2024-01-11T21:07:04.761Z,100.00
2024-01-11T21:09:37.974Z,100.00
2024-01-11T21:12:05.370Z,100.00
2024-01-11T21:14:31.950Z,100.00
2024-01-11T21:16:58.630Z,100.00
2024-01-11T21:19:25.534Z,100.00
2024-01-11T21:21:56.479Z,100.00
2024-01-11T21:24:23.298Z,100.00
2024-01-11T21:26:50.082Z,100.00
2024-01-11T21:29:17.104Z,100.00
2024-01-11T21:35:26.867Z,100.00
2024-01-11T21:37:54.955Z,100.00
2024-01-11T21:44:33.734Z,100.00
2024-01-11T21:47:00.413Z,100.00
2024-01-11T21:53:24.898Z,100.00
2024-01-11T21:57:00.917Z,100.00
2024-01-11T22:00:20.406Z,100.00
2024-01-11T22:12:18.870Z,100.00
2024-01-11T22:21:07.993Z,100.00
2024-01-11T22:23:38.712Z,100.00
2024-01-11T22:26:29.325Z,100.00
2024-01-11T22:29:09.462Z,100.00
2024-01-11T22:32:12.027Z,100.00
2024-01-11T22:35:04.450Z,100.00
2024-01-11T22:39:53.616Z,100.00
2024-01-11T22:41:57.365Z,100.00
2024-01-11T22:44:43.657Z,100.00
2024-01-11T22:47:58.886Z,100.00
2024-01-11T22:51:12.677Z,100.00
2024-01-11T23:00:55.722Z,100.00
2024-01-11T23:03:27.593Z,100.00
2024-01-11T23:09:43.301Z,100.00
2024-01-11T23:12:23.286Z,100.00
2024-01-11T23:15:04.225Z,100.00
2024-01-11T23:17:49.881Z,100.00
2024-01-11T23:20:21.286Z,100.00
2024-01-11T23:22:50.198Z,100.00
2024-01-11T23:25:26.753Z,100.00
2024-01-11T23:28:01.999Z,100.00
2024-01-11T23:30:32.374Z,100.00
2024-01-11T23:33:03.511Z,100.00
2024-01-11T23:35:30.906Z,100.00
2024-01-11T23:38:06.386Z,100.00
2024-01-11T23:40:40.991Z,100.00
2024-01-11T23:43:07.765Z,100.00
2024-01-11T23:48:17.025Z,100.00
2024-01-11T23:50:43.939Z,100.00
2024-01-11T23:53:10.730Z,100.00
2024-01-11T23:55:37.354Z,100.00
2024-01-11T23:58:04.361Z,100.00
